»·PEaware :: FFT751 KDEN-KPHX

FFT751 :: KDEN-KPHX

FLIGHT INFORMATION

Flight Status: Arrived
Operator:
Frontier Airlines
More flights by this operator :: More flights under this callsign
Pilot: Hayden Y. (1870)
Aircraft: AIRBUS A320
(A320)
More flights by this aircraft type
Origin: KDEN Denver Intl
United States
Destination: KPHX Phoenix Sky Harbor Intl
United States
More flights between these airports :: More routes between these airports
Route: SMMUR1 DAAYE GUP EAGUL6
File this flight plan on PilotEdge
Remarks: RMK / SIMBRIEF
Altitude:
(Current/Filed)
36,000ft
Speed:
(Current/Filed)
444kts
Departed: 18-May-20 01:14 PM
Arrived: 18-May-20 02:49 PM
Distance/Time
Traveled:
522nm/1:35
Distance/Time
To Go:
Arrived

Flight Plot

Page will automatically refresh every two minutes.

Flight plan parsing failed; only flown route is shown


Map Options




Map Legend


Flown Route
Filed Route
Departure Airport
Arrival Airport
Navaid (VOR, NDB)
Fix

Horizontal Profiles

Position Reports

Time Latitude Longitude Heading Altitude Ground
Speed
18-May-20 12:30 39.854318 -104.676541 180 5445ft 0kts
18-May-20 12:31 39.854318 -104.676541 180 5445ft 0kts
18-May-20 12:32 39.854318 -104.676541 180 5445ft 0kts
18-May-20 12:33 39.854318 -104.676541 180 5445ft 0kts
18-May-20 12:34 39.854318 -104.676541 180 5445ft 0kts
18-May-20 12:35 39.854318 -104.676541 180 5445ft 0kts
18-May-20 12:36 39.854318 -104.676541 180 5445ft 0kts
18-May-20 12:37 39.854318 -104.676541 180 5445ft 0kts
18-May-20 12:38 39.854318 -104.676541 180 5445ft 0kts
18-May-20 12:39 39.854318 -104.676541 180 5445ft 0kts
18-May-20 12:40 39.854318 -104.676541 180 5445ft 0kts
18-May-20 12:41 39.854318 -104.676541 180 5445ft 0kts
18-May-20 12:42 39.854318 -104.676541 180 5445ft 0kts
18-May-20 12:43 39.854318 -104.676541 180 5445ft 0kts
18-May-20 12:44 39.854318 -104.676541 180 5445ft 0kts
18-May-20 12:45 39.854318 -104.676541 180 5445ft 0kts
18-May-20 12:46 39.854318 -104.676541 180 5445ft 0kts
18-May-20 12:47 39.854318 -104.676541 180 5445ft 0kts
18-May-20 12:48 39.854318 -104.676541 180 5445ft 0kts
18-May-20 12:49 39.854318 -104.676541 180 5445ft 0kts
18-May-20 12:50 39.854318 -104.676541 180 5445ft 0kts
18-May-20 12:52 39.854318 -104.676541 180 5445ft 0kts
18-May-20 12:53 39.854318 -104.676541 180 5445ft 0kts
18-May-20 12:54 39.854318 -104.676541 180 5445ft 0kts
18-May-20 12:55 39.854318 -104.676541 180 5445ft 0kts
18-May-20 12:56 39.854318 -104.676541 180 5445ft 0kts
18-May-20 12:57 39.854318 -104.676541 180 5445ft 0kts
18-May-20 12:58 39.854318 -104.676541 180 5445ft 0kts
18-May-20 12:59 39.854318 -104.676541 180 5445ft 0kts
18-May-20 13:00 39.854318 -104.676541 180 5445ft 0kts
18-May-20 13:01 39.854318 -104.676541 180 5445ft 0kts
18-May-20 13:02 39.854977 -104.676483 191 5445ft 2kts
18-May-20 13:03 39.855317 -104.675973 270 5445ft 0kts
18-May-20 13:04 39.855317 -104.675973 270 5445ft 0kts
18-May-20 13:05 39.855317 -104.675974 270 5445ft 0kts
18-May-20 13:06 39.855317 -104.675974 270 5445ft 0kts
18-May-20 13:06 39.855877 -104.678068 307 5445ft 16kts
18-May-20 13:08 39.856000 -104.680888 270 5445ft 2kts
18-May-20 13:09 39.855990 -104.683517 269 5445ft 13kts
18-May-20 13:09 39.854034 -104.683994 181 5445ft 17kts
18-May-20 13:10 39.849171 -104.684080 181 5445ft 17kts
18-May-20 13:12 39.843420 -104.684206 180 5445ft 17kts
18-May-20 13:12 39.840678 -104.685011 272 5445ft 12kts
18-May-20 13:13 39.840949 -104.733982 271 6064ft 204kts
18-May-20 13:14 39.816222 -104.802368 242 7796ft 230kts
18-May-20 13:15 39.782143 -104.885740 234 8815ft 290kts
18-May-20 13:16 39.708107 -104.927238 182 10854ft 315kts
18-May-20 13:17 39.617148 -104.900130 156 12748ft 347kts
18-May-20 13:18 39.530843 -104.839527 153 15025ft 358kts
18-May-20 13:19 39.434232 -104.820596 187 17052ft 362kts
18-May-20 13:20 39.341370 -104.864562 219 19015ft 365kts
18-May-20 13:21 39.260986 -104.947102 218 20842ft 374kts
18-May-20 13:22 39.176838 -105.029173 218 22483ft 384kts
18-May-20 13:23 39.083910 -105.100361 207 23986ft 394kts
18-May-20 13:24 38.984832 -105.163748 208 25404ft 402kts
18-May-20 13:25 38.883872 -105.229016 208 26715ft 410kts
18-May-20 13:26 38.781288 -105.295053 208 27940ft 416kts
18-May-20 13:27 38.676949 -105.361962 208 29053ft 422kts
18-May-20 13:28 38.571205 -105.429583 208 30056ft 427kts
18-May-20 13:29 38.464465 -105.497570 208 31215ft 426kts
18-May-20 13:30 38.358821 -105.563858 207 32407ft 421kts
18-May-20 13:31 38.253680 -105.629041 207 33442ft 418kts
18-May-20 13:32 38.149434 -105.693539 207 34406ft 415kts
18-May-20 13:33 38.045443 -105.757729 207 35121ft 415kts
18-May-20 13:34 37.956338 -105.847706 227 35697ft 411kts
18-May-20 13:35 37.876619 -105.951210 225 36202ft 412kts
18-May-20 13:36 37.795170 -106.054638 226 36238ft 414kts
18-May-20 13:37 37.713821 -106.157863 226 36264ft 414kts
18-May-20 13:38 37.632364 -106.260906 226 36317ft 414kts
18-May-20 13:39 37.550769 -106.363744 226 36378ft 414kts
18-May-20 13:40 37.469439 -106.465933 225 36416ft 414kts
18-May-20 13:41 37.387654 -106.568362 225 36498ft 414kts
18-May-20 13:42 37.305949 -106.670332 225 36551ft 415kts
18-May-20 13:43 37.223795 -106.772560 225 36586ft 413kts
18-May-20 13:44 37.142228 -106.873697 225 36464ft 412kts
18-May-20 13:45 37.060852 -106.974309 225 36369ft 407kts
18-May-20 13:46 36.979512 -107.074548 225 36365ft 416kts
18-May-20 13:47 36.896970 -107.175936 225 36288ft 415kts
18-May-20 13:48 36.814705 -107.276671 224 36275ft 415kts
18-May-20 13:49 36.732472 -107.377021 224 36236ft 412kts
18-May-20 13:50 36.650350 -107.476965 224 36201ft 412kts
18-May-20 13:51 36.567954 -107.576868 224 36203ft 415kts
18-May-20 13:52 36.485206 -107.676948 224 36236ft 417kts
18-May-20 13:53 36.402021 -107.777183 224 36197ft 416kts
18-May-20 13:54 36.318961 -107.876983 224 36178ft 413kts
18-May-20 13:55 36.236750 -107.975424 224 36106ft 411kts
18-May-20 13:56 36.154229 -108.073974 224 36114ft 413kts
18-May-20 13:57 36.071069 -108.172975 224 36142ft 416kts
18-May-20 13:58 35.987384 -108.272251 224 36210ft 416kts
18-May-20 13:59 35.903943 -108.370989 224 36223ft 415kts
18-May-20 14:00 35.820603 -108.469277 224 36164ft 414kts
18-May-20 14:01 35.737121 -108.567431 224 36156ft 415kts
18-May-20 14:02 35.653240 -108.665761 224 36189ft 417kts
18-May-20 14:03 35.569166 -108.764018 223 36258ft 418kts
18-May-20 14:04 35.484623 -108.862499 224 36253ft 418kts
18-May-20 14:05 35.404326 -108.965504 227 36253ft 418kts
18-May-20 14:06 35.324361 -109.068919 226 36252ft 418kts
18-May-20 14:07 35.244359 -109.172137 226 36240ft 416kts
18-May-20 14:08 35.164832 -109.274375 226 36161ft 414kts
18-May-20 14:09 35.085453 -109.376117 226 36131ft 415kts
18-May-20 14:10 35.005261 -109.478607 226 36143ft 418kts
18-May-20 14:11 34.924772 -109.581132 226 36180ft 419kts
18-May-20 14:12 34.843951 -109.683825 226 36180ft 418kts
18-May-20 14:13 34.763807 -109.785857 226 36106ft 418kts
18-May-20 14:14 34.691990 -109.895787 244 36146ft 418kts
18-May-20 14:15 34.645505 -110.025489 244 36189ft 418kts
18-May-20 14:16 34.596924 -110.153735 245 36213ft 417kts
18-May-20 14:17 34.548952 -110.281999 244 36206ft 417kts
18-May-20 14:18 34.500987 -110.409251 244 35152ft 412kts
18-May-20 14:19 34.451345 -110.540324 243 31069ft 438kts
18-May-20 14:20 34.402798 -110.668334 242 29682ft 398kts
18-May-20 14:21 34.356847 -110.787130 237 27947ft 380kts
18-May-20 14:22 34.289115 -110.879656 223 26230ft 360kts
18-May-20 14:23 34.221878 -110.966521 224 24556ft 346kts
18-May-20 14:24 34.157329 -111.049640 224 22956ft 333kts
18-May-20 14:25 34.095221 -111.129580 224 21561ft 319kts
18-May-20 14:26 34.035412 -111.206285 224 20106ft 309kts
18-May-20 14:27 33.977235 -111.280805 223 18680ft 304kts
18-May-20 14:28 33.919220 -111.354939 223 17363ft 300kts
18-May-20 14:29 33.866304 -111.430009 233 16192ft 288kts
18-May-20 14:30 33.824532 -111.511227 232 14994ft 283kts
18-May-20 14:31 33.782236 -111.591344 232 13748ft 281kts
18-May-20 14:32 33.740649 -111.669266 232 12788ft 269kts
18-May-20 14:33 33.702337 -111.741076 231 11835ft 252kts
18-May-20 14:34 33.664772 -111.811946 232 10787ft 252kts
18-May-20 14:35 33.628188 -111.880916 232 10158ft 229kts
18-May-20 14:36 33.593992 -111.945089 233 8979ft 227kts
18-May-20 14:37 33.560262 -112.008367 233 7858ft 218kts
18-May-20 14:38 33.527956 -112.069579 240 7005ft 218kts
18-May-20 14:39 33.526262 -112.141118 263 6987ft 211kts
18-May-20 14:41 33.525478 -112.210887 263 6519ft 208kts
18-May-20 14:42 33.521161 -112.281517 232 4820ft 202kts
18-May-20 14:43 33.476533 -112.290109 141 3912ft 179kts
18-May-20 14:44 33.458802 -112.230996 119 3880ft 183kts
18-May-20 14:45 33.440696 -112.175969 98 2990ft 162kts
18-May-20 14:46 33.440844 -112.121823 95 2697ft 158kts
18-May-20 14:47 33.440817 -112.071005 88 1894ft 150kts
18-May-20 14:48 33.440824 -112.021539 88 1150ft 142kts
18-May-20 14:49 33.440824 -112.001396 92 1149ft 10kts
18-May-20 14:50 33.439304 -112.000677 188 1149ft 7kts
18-May-20 14:51 33.438954 -112.002737 270 1149ft 7kts
18-May-20 14:52 33.438968 -112.006122 270 1149ft 11kts
18-May-20 14:53 33.438690 -112.009941 230 1149ft 11kts
18-May-20 14:54 33.438015 -112.009908 109 1149ft 4kts
18-May-20 14:55 33.437882 -112.009363 102 1149ft 0kts
18-May-20 14:56 33.437879 -112.009349 102 1149ft 0kts
18-May-20 14:56 33.437879 -112.009349 102 1149ft 0kts
18-May-20 14:58 33.437879 -112.009349 102 1149ft 0kts

Navigation Log

Ident Type
Flight plan parsing failed, navigation log unavailable